KRNT - Renton
Updated: Sun, 21-Apr-2019 9:53pm PDT

 Wind from calm
Wind: Calm
Temperature: 55°F , 13°C
Dew Point: 41°F , 5°C
Humidity: 59%
Barometer: 30.29 inHg , 1025.7 hPa
Visibility: 10 miles , 16 km
2019/04/22 04:53 KRNT 220453Z AUTO 00000KT 10SM CLR 13/05 A3029 RMK AO2 SLP263 T01280050
KBFI - Seattle-Boeing
Updated: Sun, 21-Apr-2019 9:53pm PDT

 Wind from NW
Wind: NW 3 mph , 6 km/h
Temperature: 54°F , 12°C
Dew Point: 41°F , 5°C
Humidity: 63%
Barometer: 30.30 inHg , 1026.1 hPa
Visibility: 10 miles , 16 km
2019/04/22 04:53 KBFI 220453Z 32003KT 10SM CLR 12/05 A3030 RMK AO2 SLP258 T01170050
 
KSEA - Seattle
Updated: Sun, 21-Apr-2019 9:53pm PDT

 Wind from W
Wind: W 7 mph , 11 km/h
Temperature: 52°F , 11°C
Dew Point: 39°F , 4°C
Humidity: 62%
Barometer: 30.30 inHg , 1026.1 hPa
Visibility: 10 miles , 16 km
Cloud details: 4000 ft
22000 ft
2019/04/22 04:53 KSEA 220453Z 26006KT 10SM FEW040 SCT220 11/04 A3030 RMK AO2 SLP266 T01110044
KSMP - Stampede Pass
Updated: Sun, 21-Apr-2019 9:56pm PDT

 Wind from WSW
Wind: WSW 3 mph , 6 km/h
Temperature: 37°F , 3°C
Dew Point: 36°F , 2°C
Humidity: 93%
Barometer: 30.26 inHg , 1024.7 hPa
Visibility: 10 miles , 16 km
2019/04/22 04:56 KSMP 220456Z AUTO 25003KT 10SM CLR 03/02 A3026 RMK AO2 SLP262 T00330017